Time;durP1;ratioP1;P1;durP2;ratioP2;P2;SDS_P1;SDS_P2;PMS_P1;PMS_P2;Temp;Humidity;BMP_temperature;BMP_pressure;BME280_temperature;BME280_humidity;BME280_pressure;Samples;Min_cycle;Max_cycle;Signal;HPM_P1;HPM_P2
2022/09/20 00:00:10;;;;;;;0.10;0.00;;;7.90;79.00;;;;;;20824875;28;20486;-59
2022/09/20 00:10:13;;;;;;;0.00;0.00;;;7.80;77.10;;;;;;20823689;28;20453;-58
2022/09/20 00:20:16;;;;;;;0.00;0.00;;;7.70;79.10;;;;;;20791468;28;20096;-59
2022/09/20 00:30:18;;;;;;;0.30;0.00;;;7.60;79.20;;;;;;20806059;28;20041;-59
2022/09/20 00:40:23;;;;;;;0.32;0.00;;;7.50;79.90;;;;;;20739537;28;20684;-59
2022/09/20 00:50:34;;;;;;;0.52;0.03;;;7.40;79.20;;;;;;20748657;28;20125;-55
2022/09/20 01:00:38;;;;;;;0.00;0.00;;;7.60;78.60;;;;;;20787630;28;20120;-54
2022/09/20 01:10:43;;;;;;;0.15;0.00;;;7.30;80.10;;;;;;20771750;28;20042;-57
2022/09/20 01:20:47;;;;;;;0.10;0.00;;;7.10;80.10;;;;;;20819479;28;20052;-53
2022/09/20 01:31:09;;;;;;;0.10;0.00;;;7.10;81.10;;;;;;20819728;28;20034;-62
2022/09/20 01:41:25;;;;;;;0.00;0.00;;;7.00;80.80;;;;;;20713701;28;20092;-61
2022/09/20 01:51:48;;;;;;;0.28;0.10;;;7.00;81.80;;;;;;20754656;28;20049;-67
2022/09/20 02:02:13;;;;;;;0.10;0.00;;;6.90;81.40;;;;;;20786405;28;20041;-70
2022/09/20 02:12:43;;;;;;;0.15;0.00;;;6.80;81.90;;;;;;20803909;28;20474;-69
2022/09/20 02:23:13;;;;;;;0.05;0.00;;;6.70;82.10;;;;;;20787457;28;20034;-68
2022/09/20 02:33:33;;;;;;;0.08;0.00;;;6.60;81.70;;;;;;20724678;28;20045;-68
2022/09/20 02:44:08;;;;;;;0.10;0.00;;;6.50;82.90;;;;;;20766125;28;20111;-69
2022/09/20 02:54:45;;;;;;;0.00;0.00;;;6.50;82.20;;;;;;20787881;28;20049;-68
2022/09/20 03:04:59;;;;;;;0.00;0.00;;;6.50;82.60;;;;;;20829096;28;20037;-62
2022/09/20 03:15:50;;;;;;;0.00;0.00;;;6.60;81.80;;;;;;20795727;28;20041;-68
2022/09/20 03:26:01;;;;;;;0.00;0.00;;;6.50;82.00;;;;;;20463356;28;20046;-68
2022/09/20 03:36:41;;;;;;;0.10;0.00;;;6.40;82.90;;;;;;20478845;28;20062;-68
2022/09/20 03:46:51;;;;;;;0.10;0.05;;;6.40;83.40;;;;;;20390109;28;20143;-67
2022/09/20 03:57:08;;;;;;;0.13;0.08;;;6.30;84.10;;;;;;20699282;28;20049;-69
2022/09/20 04:07:32;;;;;;;0.00;0.00;;;6.20;84.20;;;;;;20823945;28;20038;-69
2022/09/20 04:17:47;;;;;;;0.00;0.00;;;6.20;82.70;;;;;;20790292;28;20135;-68
2022/09/20 04:28:02;;;;;;;0.05;0.00;;;6.30;83.20;;;;;;20822747;28;20063;-68
2022/09/20 04:38:11;;;;;;;0.10;0.08;;;6.30;82.30;;;;;;20820861;28;20056;-63
2022/09/20 04:48:51;;;;;;;0.10;0.00;;;6.30;83.10;;;;;;20699773;28;20049;-68
2022/09/20 04:59:16;;;;;;;0.10;0.00;;;6.20;83.30;;;;;;20822594;28;20501;-68
2022/09/20 05:10:09;;;;;;;0.00;0.00;;;6.30;83.20;;;;;;20777137;28;20467;-54
2022/09/20 05:20:24;;;;;;;0.10;0.00;;;6.20;83.10;;;;;;20710361;28;20099;-46
2022/09/20 05:30:48;;;;;;;0.10;0.00;;;6.30;83.80;;;;;;20772990;28;20080;-44
2022/09/20 05:41:03;;;;;;;0.00;0.00;;;6.30;84.30;;;;;;20756586;28;20056;-45
2022/09/20 05:51:25;;;;;;;0.17;0.00;;;6.40;83.20;;;;;;20760638;28;20172;-44
2022/09/20 06:01:46;;;;;;;1.27;0.00;;;6.50;83.80;;;;;;20693168;28;20186;-44
2022/09/20 06:12:03;;;;;;;0.10;0.07;;;6.50;83.90;;;;;;20807856;28;20475;-55
2022/09/20 06:22:21;;;;;;;0.05;0.00;;;6.50;84.20;;;;;;20826257;28;20045;-46
2022/09/20 06:32:23;;;;;;;0.00;0.00;;;6.60;84.90;;;;;;20723706;28;20037;-44
2022/09/20 06:42:26;;;;;;;0.10;0.10;;;6.70;87.80;;;;;;20732931;28;20101;-45
2022/09/20 06:52:28;;;;;;;0.22;0.05;;;6.80;83.80;;;;;;20760470;28;20402;-45
2022/09/20 07:02:31;;;;;;;0.30;0.10;;;7.60;82.40;;;;;;20676274;28;20424;-46
2022/09/20 07:12:33;;;;;;;0.10;0.00;;;8.40;80.70;;;;;;20828690;28;20034;-44
2022/09/20 07:22:37;;;;;;;0.57;0.10;;;9.00;79.90;;;;;;20827558;28;20521;-44
2022/09/20 07:32:39;;;;;;;0.00;0.00;;;9.70;79.60;;;;;;20826608;28;20041;-44
2022/09/20 07:42:44;;;;;;;0.13;0.03;;;10.40;76.50;;;;;;20768019;28;20096;-44
2022/09/20 07:52:47;;;;;;;0.10;0.10;;;10.90;75.80;;;;;;20787860;28;20037;-44
2022/09/20 08:02:58;;;;;;;0.17;0.10;;;11.20;75.20;;;;;;20824327;28;20033;-44
2022/09/20 08:13:00;;;;;;;0.67;0.10;;;12.10;77.90;;;;;;20807504;28;20041;-44
2022/09/20 08:23:05;;;;;;;0.90;0.10;;;12.70;76.50;;;;;;20806373;28;20390;-45
2022/09/20 08:33:10;;;;;;;0.13;0.00;;;13.70;82.10;;;;;;20821835;28;20509;-45
2022/09/20 08:43:13;;;;;;;0.38;0.10;;;13.90;80.50;;;;;;20791947;28;20474;-45
2022/09/20 08:53:18;;;;;;;0.20;0.10;;;14.70;79.70;;;;;;20788173;28;20049;-57
2022/09/20 09:03:25;;;;;;;1.05;0.10;;;15.10;76.90;;;;;;20821995;28;20147;-45
2022/09/20 09:13:51;;;;;;;0.52;0.10;;;15.30;76.50;;;;;;20820420;28;20548;-44
2022/09/20 09:24:19;;;;;;;0.43;0.10;;;16.00;76.80;;;;;;20774426;28;20046;-47
2022/09/20 09:34:27;;;;;;;1.23;0.15;;;16.60;80.20;;;;;;20754647;28;20100;-57
2022/09/20 09:44:32;;;;;;;0.50;0.30;;;16.80;81.60;;;;;;20796400;28;20026;-46
2022/09/20 09:54:39;;;;;;;0.57;0.30;;;17.10;84.50;;;;;;20701008;28;20042;-45
2022/09/20 10:05:15;;;;;;;0.30;0.20;;;17.40;84.60;;;;;;20713604;28;20083;-47
2022/09/20 10:15:53;;;;;;;1.27;0.30;;;17.40;84.60;;;;;;20654030;28;20038;-45
2022/09/20 10:26:04;;;;;;;0.32;0.17;;;18.00;85.90;;;;;;20786359;28;20406;-45
2022/09/20 10:36:29;;;;;;;1.95;0.35;;;18.50;84.40;;;;;;20830151;28;20072;-47
2022/09/20 10:46:52;;;;;;;0.60;0.30;;;18.90;81.10;;;;;;20774853;28;20068;-46
2022/09/20 10:57:09;;;;;;;1.02;0.50;;;19.10;80.70;;;;;;20810769;28;20050;-46
2022/09/20 11:07:20;;;;;;;1.88;0.40;;;18.50;80.60;;;;;;20829629;28;20108;-59
2022/09/20 11:17:30;;;;;;;0.85;0.40;;;18.40;83.50;;;;;;20828848;28;20092;-58
2022/09/20 11:27:57;;;;;;;1.00;0.40;;;19.40;80.30;;;;;;20828538;28;20445;-58
2022/09/20 11:38:27;;;;;;;0.70;0.50;;;18.60;80.40;;;;;;20780964;28;20041;-46
2022/09/20 11:48:37;;;;;;;0.90;0.37;;;17.00;85.90;;;;;;20743219;28;20035;-58
2022/09/20 11:58:52;;;;;;;1.17;0.32;;;16.30;89.90;;;;;;20648776;28;20034;-47
2022/09/20 12:08:57;;;;;;;1.75;0.40;;;16.40;89.40;;;;;;20753150;28;20041;-45
2022/09/20 12:19:08;;;;;;;2.22;0.40;;;16.30;88.40;;;;;;20752130;28;20026;-46
2022/09/20 12:29:31;;;;;;;0.80;0.40;;;15.80;89.40;;;;;;20661117;28;20042;-45
2022/09/20 12:39:39;;;;;;;0.60;0.40;;;15.70;90.90;;;;;;20761623;28;20033;-47
2022/09/20 13:00:07;;;;;;;1.00;0.40;;;16.40;90.60;;;;;;20804994;28;20108;-46
2022/09/20 13:10:25;;;;;;;2.53;0.50;;;16.40;88.90;;;;;;20821273;28;20033;-45
2022/09/20 13:20:33;;;;;;;1.75;0.60;;;16.10;92.10;;;;;;20790317;28;20100;-46
2022/09/20 13:30:40;;;;;;;2.20;0.50;;;16.90;90.40;;;;;;20641240;28;20299;-50
2022/09/20 13:40:48;;;;;;;2.10;0.50;;;17.30;86.20;;;;;;20767205;28;20097;-58
2022/09/20 13:50:51;;;;;;;2.15;0.50;;;16.60;90.40;;;;;;20765989;28;20506;-45
2022/09/20 14:00:57;;;;;;;2.20;0.57;;;16.10;91.10;;;;;;20719319;28;20542;-46
2022/09/20 14:11:16;;;;;;;1.60;0.60;;;16.30;88.80;;;;;;20691934;28;20495;-46
2022/09/20 14:21:26;;;;;;;1.02;0.70;;;16.30;90.40;;;;;;20718246;28;20095;-45
2022/09/20 14:31:30;;;;;;;;;;;16.10;90.60;;;;;;20756281;28;20100;-45
2022/09/20 14:41:42;;;;;;;2.17;0.95;;;15.50;90.70;;;;;;20673644;28;19971;-45
2022/09/20 14:51:45;;;;;;;2.58;0.77;;;13.80;92.70;;;;;;20770367;28;20043;-47
2022/09/20 15:02:14;;;;;;;2.05;0.65;;;12.90;95.00;;;;;;20667116;28;20038;-58
2022/09/20 15:12:20;;;;;;;1.00;0.50;;;12.50;95.90;;;;;;20705797;28;20116;-46
2022/09/20 15:22:23;;;;;;;1.27;0.90;;;12.10;97.00;;;;;;20770309;28;20037;-46
2022/09/20 15:32:25;;;;;;;1.85;0.85;;;11.70;97.60;;;;;;20827385;28;20044;-46
2022/09/20 15:42:28;;;;;;;1.63;1.05;;;11.50;98.00;;;;;;20786565;28;20305;-45
2022/09/20 15:52:36;;;;;;;1.95;1.20;;;11.40;99.50;;;;;;20769950;28;20045;-58
2022/09/20 16:02:39;;;;;;;2.53;0.95;;;11.10;99.40;;;;;;20808408;28;20025;-58
2022/09/20 16:12:41;;;;;;;1.13;0.80;;;10.50;99.90;;;;;;20824241;28;20083;-58
2022/09/20 16:22:43;;;;;;;1.73;0.82;;;9.90;99.90;;;;;;20808272;28;20079;-58
2022/09/20 16:32:46;;;;;;;4.13;1.00;;;9.50;99.90;;;;;;20821813;28;20445;-58
2022/09/20 16:42:49;;;;;;;1.58;0.80;;;9.10;99.90;;;;;;20795933;28;20034;-45
2022/09/20 16:52:51;;;;;;;3.33;0.90;;;9.00;99.90;;;;;;20768362;28;20049;-57
2022/09/20 17:02:54;;;;;;;2.00;0.90;;;8.60;99.90;;;;;;20820832;28;20080;-46
2022/09/20 17:12:58;;;;;;;4.07;1.20;;;8.30;99.90;;;;;;20821667;28;20037;-47
2022/09/20 17:23:01;;;;;;;1.95;1.25;;;8.10;99.90;;;;;;20819709;28;20152;-57
2022/09/20 17:33:03;;;;;;;2.60;1.30;;;7.80;99.90;;;;;;20819789;28;20559;-45
2022/09/20 17:43:07;;;;;;;2.17;1.77;;;7.50;99.90;;;;;;20778433;28;20037;-46
2022/09/20 17:53:09;;;;;;;3.67;1.80;;;7.40;99.90;;;;;;20784440;28;20045;-45
2022/09/20 18:03:13;;;;;;;3.03;1.80;;;7.40;99.90;;;;;;20834505;28;20033;-44
2022/09/20 18:13:16;;;;;;;2.80;1.92;;;7.10;99.90;;;;;;20833946;28;20087;-47
2022/09/20 18:23:19;;;;;;;2.63;1.75;;;7.00;99.90;;;;;;20833299;28;20038;-51
2022/09/20 18:33:21;;;;;;;5.97;2.00;;;6.90;99.90;;;;;;20832254;28;20056;-51
2022/09/20 18:43:29;;;;;;;3.30;2.67;;;6.90;99.90;;;;;;20753219;28;20112;-61
2022/09/20 18:53:36;;;;;;;5.80;2.70;;;6.80;99.90;;;;;;20747446;28;20046;-59
2022/09/20 19:04:21;;;;;;;4.72;2.67;;;6.70;99.90;;;;;;20729754;28;20050;-59
2022/09/20 19:14:51;;;;;;;7.22;3.20;;;6.70;99.90;;;;;;20568240;28;20121;-66
2022/09/20 19:25:12;;;;;;;5.30;4.05;;;6.60;99.90;;;;;;20561091;28;20043;-59
2022/09/20 19:35:20;;;;;;;;;;;6.50;99.90;;;;;;20555992;28;20050;-59
2022/09/20 19:45:45;;;;;;;9.95;4.82;;;6.50;99.90;;;;;;20604713;28;19909;-61
2022/09/20 19:56:25;;;;;;;7.90;4.60;;;6.50;99.90;;;;;;20742316;28;20050;-63
2022/09/20 20:06:54;;;;;;;6.88;5.05;;;6.70;99.90;;;;;;20743655;28;20106;-64
2022/09/20 20:17:03;;;;;;;6.28;5.15;;;6.70;99.90;;;;;;20743122;28;20558;-61
2022/09/20 20:27:06;;;;;;;7.07;4.97;;;6.70;99.90;;;;;;20725938;28;20538;-58
2022/09/20 20:37:08;;;;;;;8.52;5.00;;;6.60;99.90;;;;;;20780629;28;20029;-59
2022/09/20 20:47:11;;;;;;;9.05;6.07;;;6.50;99.90;;;;;;20744695;28;20054;-58
2022/09/20 20:57:17;;;;;;;7.32;6.13;;;6.50;99.90;;;;;;20804672;28;20080;-58
2022/09/20 21:07:20;;;;;;;11.07;6.85;;;6.40;99.90;;;;;;20821503;28;20482;-58
2022/09/20 21:17:23;;;;;;;9.80;7.15;;;6.40;99.90;;;;;;20827068;28;20481;-58
2022/09/20 21:27:27;;;;;;;8.18;6.20;;;6.40;99.90;;;;;;20848479;28;20037;-59
2022/09/20 21:37:30;;;;;;;11.48;6.72;;;6.40;99.90;;;;;;20847675;28;20045;-60
2022/09/20 21:47:32;;;;;;;8.60;6.78;;;6.40;99.90;;;;;;20750856;28;20042;-60
2022/09/20 21:57:36;;;;;;;7.45;6.45;;;6.40;99.90;;;;;;20822559;28;20486;-58
2022/09/20 22:07:38;;;;;;;9.00;6.03;;;6.70;99.90;;;;;;20846697;28;20445;-62
2022/09/20 22:17:41;;;;;;;7.70;5.63;;;7.10;99.90;;;;;;20846103;28;20445;-62
2022/09/20 22:27:43;;;;;;;8.60;5.15;;;7.30;99.90;;;;;;20829563;28;20112;-62
2022/09/20 22:37:46;;;;;;;7.13;5.03;;;7.60;99.90;;;;;;20734240;28;20088;-62
2022/09/20 22:47:49;;;;;;;8.52;5.70;;;7.80;99.90;;;;;;20733255;28;20042;-61
2022/09/20 22:57:52;;;;;;;8.15;6.10;;;7.80;99.90;;;;;;20716776;28;20439;-62
2022/09/20 23:07:55;;;;;;;10.57;8.00;;;7.60;99.90;;;;;;20694171;28;20099;-61
2022/09/20 23:17:57;;;;;;;11.10;8.15;;;7.40;99.90;;;;;;20736438;28;20409;-61
2022/09/20 23:28:00;;;;;;;10.48;7.85;;;7.40;99.90;;;;;;20812578;28;20453;-62
2022/09/20 23:38:03;;;;;;;7.07;5.28;;;7.60;99.90;;;;;;20795436;28;20103;-62
2022/09/20 23:48:05;;;;;;;4.10;3.28;;;7.80;99.90;;;;;;20698118;28;20085;-69
2022/09/20 23:58:08;;;;;;;3.88;3.22;;;8.00;99.90;;;;;;20728493;28;20564;-45
